sensor_id;sensor_type;location;lat;lon;timestamp;temperature;humidity
80579;SHT31;69939;52.402;6.608;2023-06-22T00:02:18;17.42;90.13
80579;SHT31;69939;52.402;6.608;2023-06-22T00:04:46;17.46;89.98
80579;SHT31;69939;52.402;6.608;2023-06-22T00:07:13;17.51;88.90
80579;SHT31;69939;52.402;6.608;2023-06-22T00:09:40;17.57;88.54
80579;SHT31;69939;52.402;6.608;2023-06-22T00:12:08;17.63;87.62
80579;SHT31;69939;52.402;6.608;2023-06-22T00:14:35;17.70;87.09
80579;SHT31;69939;52.402;6.608;2023-06-22T00:17:03;17.70;87.20
80579;SHT31;69939;52.402;6.608;2023-06-22T00:19:30;17.71;87.23
80579;SHT31;69939;52.402;6.608;2023-06-22T00:21:57;17.69;87.55
80579;SHT31;69939;52.402;6.608;2023-06-22T00:24:25;17.66;87.68
80579;SHT31;69939;52.402;6.608;2023-06-22T00:26:52;17.67;87.66
80579;SHT31;69939;52.402;6.608;2023-06-22T00:29:18;17.69;87.50
80579;SHT31;69939;52.402;6.608;2023-06-22T00:31:45;17.62;88.00
80579;SHT31;69939;52.402;6.608;2023-06-22T00:34:15;17.59;88.39
80579;SHT31;69939;52.402;6.608;2023-06-22T00:36:42;17.62;87.94
80579;SHT31;69939;52.402;6.608;2023-06-22T00:39:09;17.62;87.91
80579;SHT31;69939;52.402;6.608;2023-06-22T00:41:37;17.57;88.43
80579;SHT31;69939;52.402;6.608;2023-06-22T00:44:04;17.49;89.27
80579;SHT31;69939;52.402;6.608;2023-06-22T00:46:32;17.51;88.66
80579;SHT31;69939;52.402;6.608;2023-06-22T00:48:59;17.46;89.11
80579;SHT31;69939;52.402;6.608;2023-06-22T00:51:28;17.38;89.59
80579;SHT31;69939;52.402;6.608;2023-06-22T00:53:55;17.36;89.54
80579;SHT31;69939;52.402;6.608;2023-06-22T00:56:24;17.35;89.89
80579;SHT31;69939;52.402;6.608;2023-06-22T00:58:51;17.26;89.75
80579;SHT31;69939;52.402;6.608;2023-06-22T01:01:19;17.22;90.51
80579;SHT31;69939;52.402;6.608;2023-06-22T01:03:48;17.16;90.96
80579;SHT31;69939;52.402;6.608;2023-06-22T01:06:19;17.14;91.36
80579;SHT31;69939;52.402;6.608;2023-06-22T01:09:00;17.14;91.72
80579;SHT31;69939;52.402;6.608;2023-06-22T01:11:37;17.15;92.13
80579;SHT31;69939;52.402;6.608;2023-06-22T01:14:14;17.12;92.52
80579;SHT31;69939;52.402;6.608;2023-06-22T01:16:45;17.09;92.79
80579;SHT31;69939;52.402;6.608;2023-06-22T01:19:27;17.05;93.19
80579;SHT31;69939;52.402;6.608;2023-06-22T01:22:02;17.02;93.47
80579;SHT31;69939;52.402;6.608;2023-06-22T01:24:41;17.00;93.66
80579;SHT31;69939;52.402;6.608;2023-06-22T01:27:28;17.02;93.63
80579;SHT31;69939;52.402;6.608;2023-06-22T01:30:05;17.02;93.89
80579;SHT31;69939;52.402;6.608;2023-06-22T01:32:36;16.98;94.27
80579;SHT31;69939;52.402;6.608;2023-06-22T01:35:06;17.00;94.51
80579;SHT31;69939;52.402;6.608;2023-06-22T01:37:38;16.91;94.77
80579;SHT31;69939;52.402;6.608;2023-06-22T01:40:07;16.91;95.42
80579;SHT31;69939;52.402;6.608;2023-06-22T01:42:37;16.84;95.11
80579;SHT31;69939;52.402;6.608;2023-06-22T01:45:07;16.85;95.54
80579;SHT31;69939;52.402;6.608;2023-06-22T01:47:36;16.84;95.86
80579;SHT31;69939;52.402;6.608;2023-06-22T01:50:05;16.80;95.81
80579;SHT31;69939;52.402;6.608;2023-06-22T01:52:33;16.71;95.77
80579;SHT31;69939;52.402;6.608;2023-06-22T01:55:00;16.70;95.93
80579;SHT31;69939;52.402;6.608;2023-06-22T01:57:27;16.74;96.36
80579;SHT31;69939;52.402;6.608;2023-06-22T01:59:59;16.67;96.08
80579;SHT31;69939;52.402;6.608;2023-06-22T02:02:33;16.67;96.69
80579;SHT31;69939;52.402;6.608;2023-06-22T02:05:06;16.64;97.01
80579;SHT31;69939;52.402;6.608;2023-06-22T02:07:44;16.64;97.30
80579;SHT31;69939;52.402;6.608;2023-06-22T02:10:17;16.67;97.35
80579;SHT31;69939;52.402;6.608;2023-06-22T02:12:48;16.64;97.31
80579;SHT31;69939;52.402;6.608;2023-06-22T02:15:17;16.65;97.31
80579;SHT31;69939;52.402;6.608;2023-06-22T02:17:46;16.63;97.54
80579;SHT31;69939;52.402;6.608;2023-06-22T02:20:15;16.64;97.45
80579;SHT31;69939;52.402;6.608;2023-06-22T02:22:41;16.60;97.38
80579;SHT31;69939;52.402;6.608;2023-06-22T02:25:08;16.60;97.78
80579;SHT31;69939;52.402;6.608;2023-06-22T02:27:35;16.59;97.70
80579;SHT31;69939;52.402;6.608;2023-06-22T02:30:06;16.59;97.85
80579;SHT31;69939;52.402;6.608;2023-06-22T02:32:34;16.64;98.39
80579;SHT31;69939;52.402;6.608;2023-06-22T02:35:03;16.64;98.32
80579;SHT31;69939;52.402;6.608;2023-06-22T02:37:31;16.59;98.21
80579;SHT31;69939;52.402;6.608;2023-06-22T02:39:58;16.65;98.39
80579;SHT31;69939;52.402;6.608;2023-06-22T02:42:25;16.67;98.33
80579;SHT31;69939;52.402;6.608;2023-06-22T02:44:52;16.61;98.18
80579;SHT31;69939;52.402;6.608;2023-06-22T02:47:21;16.60;98.34
80579;SHT31;69939;52.402;6.608;2023-06-22T02:49:48;16.59;98.61
80579;SHT31;69939;52.402;6.608;2023-06-22T02:52:16;16.61;98.40
80579;SHT31;69939;52.402;6.608;2023-06-22T02:54:43;16.60;98.39
80579;SHT31;69939;52.402;6.608;2023-06-22T02:57:10;16.54;98.64
80579;SHT31;69939;52.402;6.608;2023-06-22T02:59:39;16.54;98.33
80579;SHT31;69939;52.402;6.608;2023-06-22T03:02:06;16.59;98.46
80579;SHT31;69939;52.402;6.608;2023-06-22T03:04:33;16.46;98.82
80579;SHT31;69939;52.402;6.608;2023-06-22T03:07:00;16.52;98.93
80579;SHT31;69939;52.402;6.608;2023-06-22T03:09:28;16.52;98.80
80579;SHT31;69939;52.402;6.608;2023-06-22T03:11:55;16.57;98.85
80579;SHT31;69939;52.402;6.608;2023-06-22T03:14:22;16.54;98.68
80579;SHT31;69939;52.402;6.608;2023-06-22T03:16:49;16.54;98.41
80579;SHT31;69939;52.402;6.608;2023-06-22T03:19:16;16.53;98.62
80579;SHT31;69939;52.402;6.608;2023-06-22T03:21:47;16.50;98.67
80579;SHT31;69939;52.402;6.608;2023-06-22T03:24:14;16.54;98.84
80579;SHT31;69939;52.402;6.608;2023-06-22T03:26:42;16.57;98.74
80579;SHT31;69939;52.402;6.608;2023-06-22T03:29:12;16.59;98.80
80579;SHT31;69939;52.402;6.608;2023-06-22T03:31:40;16.57;98.69
80579;SHT31;69939;52.402;6.608;2023-06-22T03:34:07;16.61;98.60
80579;SHT31;69939;52.402;6.608;2023-06-22T03:36:34;16.64;98.48
80579;SHT31;69939;52.402;6.608;2023-06-22T03:39:01;16.64;98.45
80579;SHT31;69939;52.402;6.608;2023-06-22T03:41:28;16.64;98.58
80579;SHT31;69939;52.402;6.608;2023-06-22T03:43:56;16.70;98.43
80579;SHT31;69939;52.402;6.608;2023-06-22T03:46:23;16.70;98.36
80579;SHT31;69939;52.402;6.608;2023-06-22T03:48:50;16.70;98.41
80579;SHT31;69939;52.402;6.608;2023-06-22T03:51:17;16.68;98.28
80579;SHT31;69939;52.402;6.608;2023-06-22T03:53:44;16.74;98.22
80579;SHT31;69939;52.402;6.608;2023-06-22T03:56:13;16.74;98.03
80579;SHT31;69939;52.402;6.608;2023-06-22T03:58:45;16.73;98.14
80579;SHT31;69939;52.402;6.608;2023-06-22T04:01:14;16.77;97.96
80579;SHT31;69939;52.402;6.608;2023-06-22T04:03:42;16.74;97.78
80579;SHT31;69939;52.402;6.608;2023-06-22T04:06:09;16.75;97.81
80579;SHT31;69939;52.402;6.608;2023-06-22T04:08:36;16.77;97.81
80579;SHT31;69939;52.402;6.608;2023-06-22T04:11:03;16.74;97.77
80579;SHT31;69939;52.402;6.608;2023-06-22T04:13:30;16.74;97.56
80579;SHT31;69939;52.402;6.608;2023-06-22T04:15:57;16.77;97.44
80579;SHT31;69939;52.402;6.608;2023-06-22T04:18:25;16.75;97.60
80579;SHT31;69939;52.402;6.608;2023-06-22T04:20:52;16.77;97.30
80579;SHT31;69939;52.402;6.608;2023-06-22T04:23:18;16.78;97.24
80579;SHT31;69939;52.402;6.608;2023-06-22T04:25:45;16.81;97.07
80579;SHT31;69939;52.402;6.608;2023-06-22T04:28:13;16.80;96.89
80579;SHT31;69939;52.402;6.608;2023-06-22T04:30:40;16.85;96.81
80579;SHT31;69939;52.402;6.608;2023-06-22T04:33:12;16.82;96.80
80579;SHT31;69939;52.402;6.608;2023-06-22T04:35:41;16.85;96.50
80579;SHT31;69939;52.402;6.608;2023-06-22T04:38:12;16.94;96.35
80579;SHT31;69939;52.402;6.608;2023-06-22T04:40:39;17.05;95.98
80579;SHT31;69939;52.402;6.608;2023-06-22T04:43:07;17.09;95.68
80579;SHT31;69939;52.402;6.608;2023-06-22T04:45:35;17.29;95.09
80579;SHT31;69939;52.402;6.608;2023-06-22T04:48:05;17.36;94.53
80579;SHT31;69939;52.402;6.608;2023-06-22T04:50:34;17.51;94.02
80579;SHT31;69939;52.402;6.608;2023-06-22T04:53:05;17.66;93.86
80579;SHT31;69939;52.402;6.608;2023-06-22T04:55:32;17.71;93.21
80579;SHT31;69939;52.402;6.608;2023-06-22T04:57:59;17.76;93.01
80579;SHT31;69939;52.402;6.608;2023-06-22T05:00:30;17.86;93.10
80579;SHT31;69939;52.402;6.608;2023-06-22T05:02:57;18.01;92.00
80579;SHT31;69939;52.402;6.608;2023-06-22T05:05:24;18.14;91.50
80579;SHT31;69939;52.402;6.608;2023-06-22T05:07:52;18.18;91.04
80579;SHT31;69939;52.402;6.608;2023-06-22T05:10:21;18.39;90.26
80579;SHT31;69939;52.402;6.608;2023-06-22T05:12:48;18.51;89.70
80579;SHT31;69939;52.402;6.608;2023-06-22T05:15:14;18.77;89.03
80579;SHT31;69939;52.402;6.608;2023-06-22T05:17:41;18.87;88.35
80579;SHT31;69939;52.402;6.608;2023-06-22T05:20:12;18.90;88.25
80579;SHT31;69939;52.402;6.608;2023-06-22T05:22:43;18.90;87.84
80579;SHT31;69939;52.402;6.608;2023-06-22T05:25:10;18.97;87.91
80579;SHT31;69939;52.402;6.608;2023-06-22T05:27:39;19.12;87.17
80579;SHT31;69939;52.402;6.608;2023-06-22T05:30:07;19.25;86.55
80579;SHT31;69939;52.402;6.608;2023-06-22T05:32:35;19.38;85.97
80579;SHT31;69939;52.402;6.608;2023-06-22T05:35:02;19.48;85.80
80579;SHT31;69939;52.402;6.608;2023-06-22T05:37:29;19.70;84.44
80579;SHT31;69939;52.402;6.608;2023-06-22T05:39:56;20.06;83.51
80579;SHT31;69939;52.402;6.608;2023-06-22T05:42:23;20.23;82.84
80579;SHT31;69939;52.402;6.608;2023-06-22T05:44:52;20.71;80.54
80579;SHT31;69939;52.402;6.608;2023-06-22T05:47:19;21.03;79.12
80579;SHT31;69939;52.402;6.608;2023-06-22T05:49:48;21.41;77.95
80579;SHT31;69939;52.402;6.608;2023-06-22T05:52:14;21.86;76.49
80579;SHT31;69939;52.402;6.608;2023-06-22T05:54:41;22.61;74.22
80579;SHT31;69939;52.402;6.608;2023-06-22T05:57:08;22.77;73.17
80579;SHT31;69939;52.402;6.608;2023-06-22T05:59:35;23.41;71.58
80579;SHT31;69939;52.402;6.608;2023-06-22T06:02:03;22.98;71.85
80579;SHT31;69939;52.402;6.608;2023-06-22T06:04:30;22.90;72.30
80579;SHT31;69939;52.402;6.608;2023-06-22T06:06:57;23.96;69.45
80579;SHT31;69939;52.402;6.608;2023-06-22T06:09:24;23.77;69.78
80579;SHT31;69939;52.402;6.608;2023-06-22T06:11:50;23.70;69.71
80579;SHT31;69939;52.402;6.608;2023-06-22T06:14:17;24.58;68.02
80579;SHT31;69939;52.402;6.608;2023-06-22T06:16:43;24.63;66.25
80579;SHT31;69939;52.402;6.608;2023-06-22T06:19:11;23.84;67.28
80579;SHT31;69939;52.402;6.608;2023-06-22T06:21:38;24.17;67.56
80579;SHT31;69939;52.402;6.608;2023-06-22T06:24:05;24.69;65.71
80579;SHT31;69939;52.402;6.608;2023-06-22T06:26:32;23.98;66.77
80579;SHT31;69939;52.402;6.608;2023-06-22T06:29:01;23.73;68.12
80579;SHT31;69939;52.402;6.608;2023-06-22T06:31:29;24.56;66.26
80579;SHT31;69939;52.402;6.608;2023-06-22T06:33:55;24.48;65.20
80579;SHT31;69939;52.402;6.608;2023-06-22T06:36:23;24.96;63.88
80579;SHT31;69939;52.402;6.608;2023-06-22T06:38:50;25.45;62.90
80579;SHT31;69939;52.402;6.608;2023-06-22T06:41:17;25.03;63.41
80579;SHT31;69939;52.402;6.608;2023-06-22T06:43:43;24.68;63.96
80579;SHT31;69939;52.402;6.608;2023-06-22T06:46:11;24.99;62.58
80579;SHT31;69939;52.402;6.608;2023-06-22T06:48:37;25.38;62.32
80579;SHT31;69939;52.402;6.608;2023-06-22T06:51:05;25.33;62.89
80579;SHT31;69939;52.402;6.608;2023-06-22T06:53:35;25.37;62.32
80579;SHT31;69939;52.402;6.608;2023-06-22T06:56:02;25.21;61.91
80579;SHT31;69939;52.402;6.608;2023-06-22T06:58:30;25.14;61.82
80579;SHT31;69939;52.402;6.608;2023-06-22T07:00:57;25.48;62.15
80579;SHT31;69939;52.402;6.608;2023-06-22T07:03:23;25.74;60.42
80579;SHT31;69939;52.402;6.608;2023-06-22T07:05:50;25.64;60.81
80579;SHT31;69939;52.402;6.608;2023-06-22T07:08:17;26.14;60.63
80579;SHT31;69939;52.402;6.608;2023-06-22T07:10:47;25.82;59.97
80579;SHT31;69939;52.402;6.608;2023-06-22T07:13:14;25.65;60.55
80579;SHT31;69939;52.402;6.608;2023-06-22T07:15:42;26.17;60.80
80579;SHT31;69939;52.402;6.608;2023-06-22T07:18:09;26.58;58.59
80579;SHT31;69939;52.402;6.608;2023-06-22T07:20:36;26.64;58.81
80579;SHT31;69939;52.402;6.608;2023-06-22T07:23:04;26.06;59.87
80579;SHT31;69939;52.402;6.608;2023-06-22T07:25:31;26.70;58.44
80579;SHT31;69939;52.402;6.608;2023-06-22T07:28:02;26.68;58.17
80579;SHT31;69939;52.402;6.608;2023-06-22T07:30:30;26.60;58.60
80579;SHT31;69939;52.402;6.608;2023-06-22T07:32:58;27.32;57.11
80579;SHT31;69939;52.402;6.608;2023-06-22T07:35:29;28.21;56.26
80579;SHT31;69939;52.402;6.608;2023-06-22T07:37:56;27.58;55.27
80579;SHT31;69939;52.402;6.608;2023-06-22T07:40:23;27.26;56.14
80579;SHT31;69939;52.402;6.608;2023-06-22T07:42:49;26.98;56.66
80579;SHT31;69939;52.402;6.608;2023-06-22T07:45:19;27.39;57.13
80579;SHT31;69939;52.402;6.608;2023-06-22T07:47:46;27.94;56.75
80579;SHT31;69939;52.402;6.608;2023-06-22T07:50:13;27.83;54.82
80579;SHT31;69939;52.402;6.608;2023-06-22T07:52:39;26.89;56.74
80579;SHT31;69939;52.402;6.608;2023-06-22T07:55:07;27.40;55.77
80579;SHT31;69939;52.402;6.608;2023-06-22T07:57:34;27.58;55.27
80579;SHT31;69939;52.402;6.608;2023-06-22T08:00:03;27.91;55.58
80579;SHT31;69939;52.402;6.608;2023-06-22T08:02:39;28.25;53.94
80579;SHT31;69939;52.402;6.608;2023-06-22T08:05:06;28.70;53.68
80579;SHT31;69939;52.402;6.608;2023-06-22T08:07:34;27.56;55.29
80579;SHT31;69939;52.402;6.608;2023-06-22T08:10:03;27.22;56.07
80579;SHT31;69939;52.402;6.608;2023-06-22T08:12:30;27.13;56.20
80579;SHT31;69939;52.402;6.608;2023-06-22T08:14:57;26.79;58.32
80579;SHT31;69939;52.402;6.608;2023-06-22T08:17:24;27.23;57.11
80579;SHT31;69939;52.402;6.608;2023-06-22T08:19:52;26.24;58.60
80579;SHT31;69939;52.402;6.608;2023-06-22T08:22:19;26.10;58.97
80579;SHT31;69939;52.402;6.608;2023-06-22T08:24:45;25.79;59.53
80579;SHT31;69939;52.402;6.608;2023-06-22T08:27:12;26.52;58.40
80579;SHT31;69939;52.402;6.608;2023-06-22T08:29:40;26.77;57.27
80579;SHT31;69939;52.402;6.608;2023-06-22T08:32:08;27.15;56.60
80579;SHT31;69939;52.402;6.608;2023-06-22T08:34:35;27.76;55.94
80579;SHT31;69939;52.402;6.608;2023-06-22T08:37:03;27.15;57.70
80579;SHT31;69939;52.402;6.608;2023-06-22T08:39:31;26.57;59.20
80579;SHT31;69939;52.402;6.608;2023-06-22T08:41:59;26.74;58.65
80579;SHT31;69939;52.402;6.608;2023-06-22T08:44:25;26.94;57.84
80579;SHT31;69939;52.402;6.608;2023-06-22T08:46:52;27.29;56.87
80579;SHT31;69939;52.402;6.608;2023-06-22T08:49:19;27.71;56.41
80579;SHT31;69939;52.402;6.608;2023-06-22T08:51:46;28.35;55.81
80579;SHT31;69939;52.402;6.608;2023-06-22T08:54:16;27.83;55.58
80579;SHT31;69939;52.402;6.608;2023-06-22T08:56:42;27.33;56.03
80579;SHT31;69939;52.402;6.608;2023-06-22T08:59:09;28.49;55.14
80579;SHT31;69939;52.402;6.608;2023-06-22T09:01:36;28.94;53.18
80579;SHT31;69939;52.402;6.608;2023-06-22T09:04:03;28.26;56.05
80579;SHT31;69939;52.402;6.608;2023-06-22T09:06:32;27.51;55.99
80579;SHT31;69939;52.402;6.608;2023-06-22T09:08:59;27.19;57.03
80579;SHT31;69939;52.402;6.608;2023-06-22T09:11:27;26.61;57.63
80579;SHT31;69939;52.402;6.608;2023-06-22T09:13:54;27.47;56.22
80579;SHT31;69939;52.402;6.608;2023-06-22T09:16:20;28.22;55.30
80579;SHT31;69939;52.402;6.608;2023-06-22T09:18:47;28.40;55.41
80579;SHT31;69939;52.402;6.608;2023-06-22T09:21:14;28.53;54.76
80579;SHT31;69939;52.402;6.608;2023-06-22T09:23:41;28.66;54.32
80579;SHT31;69939;52.402;6.608;2023-06-22T09:26:08;27.63;55.85
80579;SHT31;69939;52.402;6.608;2023-06-22T09:28:37;28.40;54.00
80579;SHT31;69939;52.402;6.608;2023-06-22T09:31:04;28.83;54.12
80579;SHT31;69939;52.402;6.608;2023-06-22T09:33:32;29.31;53.28
80579;SHT31;69939;52.402;6.608;2023-06-22T09:35:58;29.10;52.84
80579;SHT31;69939;52.402;6.608;2023-06-22T09:38:26;29.14;55.61
80579;SHT31;69939;52.402;6.608;2023-06-22T09:40:52;28.55;54.36
80579;SHT31;69939;52.402;6.608;2023-06-22T09:43:19;29.14;53.10
80579;SHT31;69939;52.402;6.608;2023-06-22T09:45:47;29.17;53.94
80579;SHT31;69939;52.402;6.608;2023-06-22T09:48:14;28.74;53.13
80579;SHT31;69939;52.402;6.608;2023-06-22T09:50:41;28.48;53.65
80579;SHT31;69939;52.402;6.608;2023-06-22T09:53:07;29.03;52.81
80579;SHT31;69939;52.402;6.608;2023-06-22T09:55:34;29.34;51.13
80579;SHT31;69939;52.402;6.608;2023-06-22T09:58:01;28.69;53.12
80579;SHT31;69939;52.402;6.608;2023-06-22T10:00:27;28.32;52.60
80579;SHT31;69939;52.402;6.608;2023-06-22T10:02:56;28.45;53.49
80579;SHT31;69939;52.402;6.608;2023-06-22T10:05:24;28.52;54.08
80579;SHT31;69939;52.402;6.608;2023-06-22T10:07:51;28.52;52.69
80579;SHT31;69939;52.402;6.608;2023-06-22T10:10:17;28.71;56.90
80579;SHT31;69939;52.402;6.608;2023-06-22T10:12:46;28.40;53.17
80579;SHT31;69939;52.402;6.608;2023-06-22T10:15:16;28.83;52.33
80579;SHT31;69939;52.402;6.608;2023-06-22T10:17:43;28.11;54.66
80579;SHT31;69939;52.402;6.608;2023-06-22T10:20:11;28.18;54.67
80579;SHT31;69939;52.402;6.608;2023-06-22T10:22:39;27.84;54.28
80579;SHT31;69939;52.402;6.608;2023-06-22T10:25:07;28.00;56.15
80579;SHT31;69939;52.402;6.608;2023-06-22T10:27:34;27.40;57.12
80579;SHT31;69939;52.402;6.608;2023-06-22T10:30:01;27.76;56.02
80579;SHT31;69939;52.402;6.608;2023-06-22T10:32:30;27.65;55.07
80579;SHT31;69939;52.402;6.608;2023-06-22T10:34:57;27.09;56.17
80579;SHT31;69939;52.402;6.608;2023-06-22T10:37:25;27.23;56.21
80579;SHT31;69939;52.402;6.608;2023-06-22T10:39:51;27.09;55.55
80579;SHT31;69939;52.402;6.608;2023-06-22T10:42:18;27.09;55.99
80579;SHT31;69939;52.402;6.608;2023-06-22T10:44:46;27.26;57.46
80579;SHT31;69939;52.402;6.608;2023-06-22T10:47:12;27.12;57.01
80579;SHT31;69939;52.402;6.608;2023-06-22T10:49:40;27.36;56.49
80579;SHT31;69939;52.402;6.608;2023-06-22T10:52:07;27.10;55.83
80579;SHT31;69939;52.402;6.608;2023-06-22T10:54:37;27.03;56.12
80579;SHT31;69939;52.402;6.608;2023-06-22T10:57:04;27.19;55.55
80579;SHT31;69939;52.402;6.608;2023-06-22T10:59:31;27.06;55.28
80579;SHT31;69939;52.402;6.608;2023-06-22T11:01:58;27.08;56.25
80579;SHT31;69939;52.402;6.608;2023-06-22T11:04:25;26.91;58.40
80579;SHT31;69939;52.402;6.608;2023-06-22T11:06:51;27.16;56.70
80579;SHT31;69939;52.402;6.608;2023-06-22T11:09:18;26.43;57.41
80579;SHT31;69939;52.402;6.608;2023-06-22T11:11:48;26.62;58.47
80579;SHT31;69939;52.402;6.608;2023-06-22T11:14:18;26.64;57.39
80579;SHT31;69939;52.402;6.608;2023-06-22T11:16:45;26.79;58.42
80579;SHT31;69939;52.402;6.608;2023-06-22T11:19:12;27.10;56.74
80579;SHT31;69939;52.402;6.608;2023-06-22T11:21:39;27.29;56.84
80579;SHT31;69939;52.402;6.608;2023-06-22T11:24:06;27.16;56.12
80579;SHT31;69939;52.402;6.608;2023-06-22T11:26:33;27.32;57.38
80579;SHT31;69939;52.402;6.608;2023-06-22T11:29:01;27.05;57.34
80579;SHT31;69939;52.402;6.608;2023-06-22T11:31:30;26.92;58.80
80579;SHT31;69939;52.402;6.608;2023-06-22T11:33:57;27.12;57.59
80579;SHT31;69939;52.402;6.608;2023-06-22T11:36:25;26.89;56.85
80579;SHT31;69939;52.402;6.608;2023-06-22T11:38:52;27.46;56.62
80579;SHT31;69939;52.402;6.608;2023-06-22T11:41:19;27.26;57.59
80579;SHT31;69939;52.402;6.608;2023-06-22T11:43:46;26.87;57.42
80579;SHT31;69939;52.402;6.608;2023-06-22T11:46:14;26.81;57.46
80579;SHT31;69939;52.402;6.608;2023-06-22T11:48:41;26.84;58.11
80579;SHT31;69939;52.402;6.608;2023-06-22T11:51:07;27.12;57.21
80579;SHT31;69939;52.402;6.608;2023-06-22T11:53:34;27.40;56.89
80579;SHT31;69939;52.402;6.608;2023-06-22T11:56:01;27.22;55.83
80579;SHT31;69939;52.402;6.608;2023-06-22T11:58:28;26.94;56.18
80579;SHT31;69939;52.402;6.608;2023-06-22T12:00:54;26.64;56.40
80579;SHT31;69939;52.402;6.608;2023-06-22T12:03:22;26.54;56.82
80579;SHT31;69939;52.402;6.608;2023-06-22T12:05:50;26.62;57.42
80579;SHT31;69939;52.402;6.608;2023-06-22T12:08:17;26.23;58.56
80579;SHT31;69939;52.402;6.608;2023-06-22T12:10:44;26.29;58.75
80579;SHT31;69939;52.402;6.608;2023-06-22T12:13:11;26.12;59.03
80579;SHT31;69939;52.402;6.608;2023-06-22T12:15:38;25.74;59.58
80579;SHT31;69939;52.402;6.608;2023-06-22T12:18:04;25.75;61.05
80579;SHT31;69939;52.402;6.608;2023-06-22T12:20:32;25.75;60.38
80579;SHT31;69939;52.402;6.608;2023-06-22T12:22:59;25.71;62.78
80579;SHT31;69939;52.402;6.608;2023-06-22T12:25:26;25.52;60.39
80579;SHT31;69939;52.402;6.608;2023-06-22T12:27:52;25.52;60.32
80579;SHT31;69939;52.402;6.608;2023-06-22T12:30:19;25.31;61.27
80579;SHT31;69939;52.402;6.608;2023-06-22T12:32:46;25.24;61.31
80579;SHT31;69939;52.402;6.608;2023-06-22T12:35:12;25.20;61.80
80579;SHT31;69939;52.402;6.608;2023-06-22T12:37:41;25.27;62.35
80579;SHT31;69939;52.402;6.608;2023-06-22T12:40:10;25.14;64.09
80579;SHT31;69939;52.402;6.608;2023-06-22T12:42:37;25.20;63.22
80579;SHT31;69939;52.402;6.608;2023-06-22T12:45:04;25.10;62.55
80579;SHT31;69939;52.402;6.608;2023-06-22T12:47:32;25.02;61.93
80579;SHT31;69939;52.402;6.608;2023-06-22T12:49:58;25.09;63.18
80579;SHT31;69939;52.402;6.608;2023-06-22T12:52:25;24.99;61.51
80579;SHT31;69939;52.402;6.608;2023-06-22T12:54:53;25.09;61.73
80579;SHT31;69939;52.402;6.608;2023-06-22T12:57:20;25.13;61.46
80579;SHT31;69939;52.402;6.608;2023-06-22T12:59:47;25.02;62.33
80579;SHT31;69939;52.402;6.608;2023-06-22T13:02:14;25.18;61.20
80579;SHT31;69939;52.402;6.608;2023-06-22T13:04:40;25.24;61.86
80579;SHT31;69939;52.402;6.608;2023-06-22T13:07:08;25.44;61.11
80579;SHT31;69939;52.402;6.608;2023-06-22T13:09:36;25.30;62.59
80579;SHT31;69939;52.402;6.608;2023-06-22T13:12:05;25.14;63.51
80579;SHT31;69939;52.402;6.608;2023-06-22T13:14:32;25.14;65.77
80579;SHT31;69939;52.402;6.608;2023-06-22T13:16:59;25.11;68.75
80579;SHT31;69939;52.402;6.608;2023-06-22T13:19:25;25.06;67.98
80579;SHT31;69939;52.402;6.608;2023-06-22T13:21:54;25.00;69.99
80579;SHT31;69939;52.402;6.608;2023-06-22T13:24:20;24.53;74.87
80579;SHT31;69939;52.402;6.608;2023-06-22T13:26:47;24.48;70.76
80579;SHT31;69939;52.402;6.608;2023-06-22T13:29:15;24.42;70.81
80579;SHT31;69939;52.402;6.608;2023-06-22T13:31:42;24.43;72.30
80579;SHT31;69939;52.402;6.608;2023-06-22T13:34:08;24.28;71.94
80579;SHT31;69939;52.402;6.608;2023-06-22T13:36:35;24.17;73.09
80579;SHT31;69939;52.402;6.608;2023-06-22T13:39:02;24.15;74.41
80579;SHT31;69939;52.402;6.608;2023-06-22T13:41:29;24.13;73.66
80579;SHT31;69939;52.402;6.608;2023-06-22T13:43:56;23.88;74.81
80579;SHT31;69939;52.402;6.608;2023-06-22T13:46:24;23.94;75.71
80579;SHT31;69939;52.402;6.608;2023-06-22T13:48:50;23.80;77.12
80579;SHT31;69939;52.402;6.608;2023-06-22T13:51:17;23.55;78.13
80579;SHT31;69939;52.402;6.608;2023-06-22T13:53:44;23.45;76.55
80579;SHT31;69939;52.402;6.608;2023-06-22T13:56:10;23.09;78.87
80579;SHT31;69939;52.402;6.608;2023-06-22T13:58:37;22.87;78.89
80579;SHT31;69939;52.402;6.608;2023-06-22T14:01:04;22.86;80.78
80579;SHT31;69939;52.402;6.608;2023-06-22T14:03:32;22.71;78.34
80579;SHT31;69939;52.402;6.608;2023-06-22T14:05:58;22.52;79.05
80579;SHT31;69939;52.402;6.608;2023-06-22T14:08:25;22.36;81.25
80579;SHT31;69939;52.402;6.608;2023-06-22T14:10:52;22.17;82.13
80579;SHT31;69939;52.402;6.608;2023-06-22T14:13:19;22.01;83.01
80579;SHT31;69939;52.402;6.608;2023-06-22T14:15:46;21.79;82.62
80579;SHT31;69939;52.402;6.608;2023-06-22T14:18:14;21.69;83.77
80579;SHT31;69939;52.402;6.608;2023-06-22T14:20:42;21.62;84.91
80579;SHT31;69939;52.402;6.608;2023-06-22T14:23:09;21.62;85.82
80579;SHT31;69939;52.402;6.608;2023-06-22T14:25:36;21.61;85.05
80579;SHT31;69939;52.402;6.608;2023-06-22T14:28:03;21.65;87.42
80579;SHT31;69939;52.402;6.608;2023-06-22T14:30:29;21.58;87.76
80579;SHT31;69939;52.402;6.608;2023-06-22T14:32:56;21.57;86.13
80579;SHT31;69939;52.402;6.608;2023-06-22T14:35:26;21.46;86.30
80579;SHT31;69939;52.402;6.608;2023-06-22T14:37:54;21.44;87.34
80579;SHT31;69939;52.402;6.608;2023-06-22T14:40:21;21.36;86.70
80579;SHT31;69939;52.402;6.608;2023-06-22T14:42:48;21.22;87.61
80579;SHT31;69939;52.402;6.608;2023-06-22T14:45:14;21.18;88.33
80579;SHT31;69939;52.402;6.608;2023-06-22T14:47:41;21.14;88.24
80579;SHT31;69939;52.402;6.608;2023-06-22T14:50:08;21.09;88.34
80579;SHT31;69939;52.402;6.608;2023-06-22T14:52:35;21.06;88.63
80579;SHT31;69939;52.402;6.608;2023-06-22T14:55:04;21.06;88.92
80579;SHT31;69939;52.402;6.608;2023-06-22T14:57:31;21.11;89.44
80579;SHT31;69939;52.402;6.608;2023-06-22T14:59:58;21.06;87.82
80579;SHT31;69939;52.402;6.608;2023-06-22T15:02:26;21.00;88.06
80579;SHT31;69939;52.402;6.608;2023-06-22T15:04:53;21.06;87.34
80579;SHT31;69939;52.402;6.608;2023-06-22T15:07:20;21.04;86.26
80579;SHT31;69939;52.402;6.608;2023-06-22T15:09:47;20.96;86.26
80579;SHT31;69939;52.402;6.608;2023-06-22T15:12:15;20.98;86.88
80579;SHT31;69939;52.402;6.608;2023-06-22T15:14:42;20.93;88.86
80579;SHT31;69939;52.402;6.608;2023-06-22T15:17:09;20.95;88.67
80579;SHT31;69939;52.402;6.608;2023-06-22T15:19:36;20.91;88.60
80579;SHT31;69939;52.402;6.608;2023-06-22T15:22:04;21.03;86.52
80579;SHT31;69939;52.402;6.608;2023-06-22T15:24:31;20.99;86.03
80579;SHT31;69939;52.402;6.608;2023-06-22T15:26:58;21.03;86.35
80579;SHT31;69939;52.402;6.608;2023-06-22T15:29:27;21.04;85.85
80579;SHT31;69939;52.402;6.608;2023-06-22T15:31:59;21.07;85.92
80579;SHT31;69939;52.402;6.608;2023-06-22T15:34:26;21.03;85.79